Time;durP1;ratioP1;P1;durP2;ratioP2;P2;SDS_P1;SDS_P2;PMS_P1;PMS_P2;Temp;Humidity;BMP_temperature;BMP_pressure;BME280_temperature;BME280_humidity;BME280_pressure;Samples;Min_cycle;Max_cycle;Signal;HPM_P1;HPM_P2
2024/01/14 00:00:11;;;;;;;19.95;8.95;;;3.50;99.90;;;4.88;100.00;100141.28;4946212;29;20059;-75
2024/01/14 00:02:38;;;;;;;20.20;9.35;;;3.50;99.90;;;4.93;100.00;100132.63;4964880;28;20065;-75
2024/01/14 00:05:06;;;;;;;20.90;9.38;;;3.50;99.90;;;4.86;100.00;100115.50;4943048;28;20035;-76
2024/01/14 00:07:32;;;;;;;20.42;8.90;;;3.50;99.90;;;4.82;100.00;100119.63;4942914;29;20527;-76
2024/01/14 00:09:58;;;;;;;20.42;8.73;;;3.50;99.90;;;4.92;100.00;100124.72;4943296;28;20037;-75
2024/01/14 00:12:25;;;;;;;18.70;7.82;;;3.50;99.90;;;4.86;100.00;100120.91;4933535;29;20420;-75
2024/01/14 00:14:51;;;;;;;16.57;7.07;;;3.50;99.90;;;4.66;100.00;100104.47;4937613;29;20039;-76
2024/01/14 00:17:17;;;;;;;22.55;8.52;;;3.40;99.90;;;4.68;100.00;100108.66;4925945;28;20049;-75
2024/01/14 00:19:43;;;;;;;19.20;8.32;;;3.50;99.90;;;4.61;100.00;100110.44;4934750;29;20407;-75
2024/01/14 00:22:09;;;;;;;20.75;8.35;;;3.50;99.90;;;4.58;100.00;100098.16;4945911;28;20041;-76
2024/01/14 00:24:35;;;;;;;21.42;9.02;;;3.40;99.90;;;4.58;100.00;100130.56;4950797;28;20399;-76
2024/01/14 00:27:00;;;;;;;25.00;9.55;;;3.40;99.90;;;4.56;100.00;100099.38;4935582;28;20032;-76
2024/01/14 00:29:26;;;;;;;26.95;9.60;;;3.40;99.90;;;4.50;100.00;100083.91;4955299;28;20120;-76
2024/01/14 00:31:52;;;;;;;21.50;8.82;;;3.30;99.90;;;4.55;100.00;100092.31;4933869;29;20039;-76
2024/01/14 00:34:18;;;;;;;23.63;8.18;;;3.30;99.90;;;4.66;100.00;100093.69;4963953;28;20035;-75
2024/01/14 00:36:43;;;;;;;21.90;8.85;;;3.30;99.90;;;4.38;100.00;100116.00;4942376;28;20491;-75
2024/01/14 00:39:10;;;;;;;24.48;9.80;;;3.30;99.90;;;4.55;100.00;100092.31;4943528;28;20502;-75
2024/01/14 00:41:36;;;;;;;21.08;8.48;;;3.30;99.90;;;4.64;100.00;100109.22;4938167;28;20035;-76
2024/01/14 00:44:02;;;;;;;21.95;8.32;;;3.30;99.90;;;4.56;100.00;100089.41;4939084;28;20042;-76
2024/01/14 00:46:27;;;;;;;22.30;8.88;;;3.30;99.90;;;4.73;100.00;100098.09;4938028;29;20055;-76
2024/01/14 00:48:53;;;;;;;23.67;9.32;;;3.40;99.90;;;4.70;100.00;100089.56;4939441;29;20118;-75
2024/01/14 00:51:19;;;;;;;22.80;8.93;;;3.30;99.90;;;4.65;100.00;100092.00;4937666;29;20484;-76
2024/01/14 00:53:45;;;;;;;26.15;10.13;;;3.30;99.90;;;4.59;100.00;100093.59;4939241;29;20138;-75
2024/01/14 00:56:12;;;;;;;27.38;10.32;;;3.30;99.90;;;4.56;100.00;100089.41;4951914;29;20039;-75
2024/01/14 00:58:38;;;;;;;24.92;10.20;;;3.40;99.90;;;4.68;100.00;100078.09;4943452;29;20069;-75
2024/01/14 01:01:04;;;;;;;22.25;9.32;;;3.30;99.90;;;4.70;100.00;100078.75;4948717;28;20364;-75
2024/01/14 01:03:30;;;;;;;20.67;9.10;;;3.30;99.90;;;4.55;100.00;100081.50;4949265;29;20064;-75
2024/01/14 01:05:56;;;;;;;21.58;10.02;;;3.40;99.90;;;4.50;100.00;100062.31;4947465;29;20052;-76
2024/01/14 01:08:22;;;;;;;22.23;9.43;;;3.30;99.90;;;4.37;100.00;100060.28;4942306;29;20054;-76
2024/01/14 01:10:49;;;;;;;20.20;9.32;;;3.40;99.90;;;4.52;100.00;100073.78;4932655;28;20046;-76
2024/01/14 01:13:15;;;;;;;22.52;10.38;;;3.30;99.90;;;4.49;100.00;100074.13;4946217;29;20094;-75
2024/01/14 01:15:41;;;;;;;22.85;9.93;;;3.40;99.90;;;4.57;100.00;100064.06;4951312;29;20077;-75
2024/01/14 01:18:07;;;;;;;21.05;9.25;;;3.30;99.90;;;4.53;100.00;100078.16;4948333;29;20051;-75
2024/01/14 01:20:32;;;;;;;20.88;8.82;;;3.30;99.90;;;4.73;100.00;100068.38;4951732;28;20035;-76
2024/01/14 01:22:58;;;;;;;20.05;8.73;;;3.30;99.90;;;4.47;100.00;100080.56;4943995;28;20360;-76
2024/01/14 01:25:25;;;;;;;22.40;9.43;;;3.30;99.90;;;4.40;100.00;100052.66;4943864;29;20043;-76
2024/01/14 01:27:51;;;;;;;20.55;9.43;;;3.40;99.90;;;4.50;100.00;100065.84;4951036;29;20147;-75
2024/01/14 01:30:17;;;;;;;21.73;9.13;;;3.30;99.90;;;4.62;100.00;100060.78;4942398;29;20183;-76
2024/01/14 01:32:43;;;;;;;22.23;9.43;;;3.30;99.90;;;4.55;100.00;100057.19;4946089;29;20035;-76
2024/01/14 01:35:09;;;;;;;21.30;9.27;;;3.30;99.90;;;4.56;100.00;100072.38;4947854;28;20506;-76
2024/01/14 01:37:35;;;;;;;20.67;8.88;;;3.30;99.90;;;4.60;100.00;100042.03;4940427;29;20043;-77
2024/01/14 01:40:01;;;;;;;20.17;9.25;;;3.30;99.90;;;4.60;100.00;100050.16;4938629;29;20035;-76
2024/01/14 01:42:26;;;;;;;20.00;9.85;;;3.30;99.90;;;4.64;100.00;100047.06;4938721;28;20384;-76
2024/01/14 01:44:52;;;;;;;22.88;9.98;;;3.30;99.90;;;4.68;100.00;100043.78;4943468;29;20031;-76
2024/01/14 01:47:19;;;;;;;20.50;9.60;;;3.30;99.90;;;4.78;100.00;100058.88;4938398;29;20040;-76
2024/01/14 01:49:46;;;;;;;20.90;9.75;;;3.30;99.90;;;4.71;100.00;100045.28;4946445;28;20058;-76
2024/01/14 01:52:13;;;;;;;22.90;9.63;;;3.30;99.90;;;4.72;100.00;100038.84;4959500;28;20058;-77
2024/01/14 01:54:41;;;;;;;22.23;9.40;;;3.30;99.90;;;4.84;100.00;100036.47;4938579;29;20172;-75
2024/01/14 01:57:08;;;;;;;22.05;9.25;;;3.30;99.90;;;4.79;100.00;100028.94;4936275;29;20040;-75
2024/01/14 01:59:36;;;;;;;24.55;10.00;;;3.30;99.90;;;4.62;100.00;100036.47;4968893;28;20098;-76
2024/01/14 02:02:04;;;;;;;21.13;8.90;;;3.20;99.90;;;4.78;100.00;100031.84;4947429;28;20079;-75
2024/01/14 02:04:29;;;;;;;;;;;3.20;99.90;;;4.61;100.00;100026.69;4952959;28;20063;-75
2024/01/14 02:06:56;;;;;;;23.55;8.90;;;3.20;99.90;;;4.52;100.00;100017.88;4942435;28;20016;-75
2024/01/14 02:09:22;;;;;;;23.52;9.40;;;3.20;99.90;;;4.44;100.00;100010.72;4952813;28;20043;-75
2024/01/14 02:11:47;;;;;;;23.08;9.48;;;3.20;99.90;;;4.53;100.00;100029.53;4941248;28;20051;-77
2024/01/14 02:14:13;;;;;;;23.88;9.77;;;3.20;99.90;;;4.56;100.00;100021.84;4942195;29;20039;-76
2024/01/14 02:16:39;;;;;;;19.27;8.35;;;3.10;99.90;;;4.47;100.00;100021.13;4947991;28;20105;-76
2024/01/14 02:19:05;;;;;;;22.15;9.32;;;3.10;99.90;;;4.53;100.00;100014.13;4939886;29;20031;-76
2024/01/14 02:21:44;;;;;;;23.67;9.77;;;3.10;99.90;;;4.54;100.00;100009.59;4946752;29;20055;-76
2024/01/14 02:24:30;;;;;;;24.23;9.93;;;3.10;99.90;;;4.50;100.00;100000.16;4945530;28;20040;-76
2024/01/14 02:26:56;;;;;;;21.88;9.05;;;3.10;99.90;;;4.54;100.00;100005.00;4945402;28;20046;-76
2024/01/14 02:29:22;;;;;;;22.88;9.45;;;3.10;99.90;;;4.35;100.00;99992.97;4943060;29;20051;-77
2024/01/14 02:31:48;;;;;;;23.50;9.25;;;3.10;99.90;;;4.34;100.00;99999.41;4936251;29;21641;-75
2024/01/14 02:34:14;;;;;;;25.48;9.77;;;3.10;99.90;;;4.45;100.00;100001.59;4949061;29;20035;-76
2024/01/14 02:36:40;;;;;;;26.27;10.52;;;3.10;99.90;;;4.35;100.00;100008.31;4937311;29;20043;-77
2024/01/14 02:39:06;;;;;;;25.58;10.02;;;3.10;99.90;;;4.41;100.00;99994.09;4937611;29;20384;-76
2024/01/14 02:41:33;;;;;;;22.40;9.48;;;3.10;99.90;;;4.44;100.00;99988.28;4952151;28;20121;-75
2024/01/14 02:43:59;;;;;;;25.70;10.63;;;3.20;99.90;;;4.49;100.00;99996.66;4937891;29;20494;-75
2024/01/14 02:46:26;;;;;;;25.98;10.50;;;3.20;99.90;;;4.44;100.00;99982.88;4948323;29;20078;-76
2024/01/14 02:48:52;;;;;;;24.38;10.07;;;3.10;99.90;;;4.45;100.00;99976.47;4939958;29;20038;-76
2024/01/14 02:51:18;;;;;;;24.65;10.35;;;3.10;99.90;;;4.32;100.00;99987.97;4936628;28;20044;-76
2024/01/14 02:53:43;;;;;;;24.95;10.02;;;3.20;99.90;;;4.67;100.00;99982.69;4941287;28;20047;-75
2024/01/14 02:56:11;;;;;;;24.70;10.40;;;3.20;99.90;;;4.43;100.00;99981.22;4945912;28;20442;-77
2024/01/14 02:58:37;;;;;;;25.08;9.95;;;3.20;99.90;;;4.36;100.00;99997.34;4936711;28;20027;-76
2024/01/14 03:01:03;;;;;;;22.02;9.07;;;3.20;99.90;;;4.52;100.00;99982.75;4945820;28;20138;-76
2024/01/14 03:03:29;;;;;;;24.75;9.55;;;3.20;99.90;;;4.45;100.00;99971.06;4942250;28;20122;-76
2024/01/14 03:05:55;;;;;;;21.48;8.98;;;3.20;99.90;;;4.49;100.00;99995.78;4943591;28;20071;-76
2024/01/14 03:08:20;;;;;;;24.65;9.70;;;3.20;99.90;;;4.43;100.00;99970.41;4942604;28;20031;-76
2024/01/14 03:10:46;;;;;;;21.40;8.55;;;3.20;99.90;;;4.47;100.00;99987.91;4952056;29;20039;-76
2024/01/14 03:13:15;;;;;;;20.63;8.45;;;3.20;99.90;;;4.42;100.00;99976.84;4938278;28;20072;-75
2024/01/14 03:15:42;;;;;;;20.80;9.20;;;3.20;99.90;;;4.44;100.00;99988.28;4936683;29;20054;-76
2024/01/14 03:18:08;;;;;;;24.58;8.90;;;3.20;99.90;;;4.49;100.00;99991.25;4940137;28;20055;-76
2024/01/14 03:20:34;;;;;;;19.15;8.63;;;3.20;99.90;;;4.38;100.00;99986.38;4939078;29;20039;-76
2024/01/14 03:22:59;;;;;;;25.77;9.43;;;3.20;99.90;;;4.66;100.00;99977.47;4966162;28;20475;-76
2024/01/14 03:25:25;;;;;;;22.17;8.68;;;3.10;99.90;;;4.52;100.00;99973.81;4954505;28;20035;-75
2024/01/14 03:27:51;;;;;;;21.48;9.55;;;3.10;99.90;;;4.43;100.00;99971.22;4937038;28;20035;-76
2024/01/14 03:30:17;;;;;;;19.88;7.82;;;3.10;99.90;;;4.50;100.00;99989.34;4943337;29;20035;-76
2024/01/14 03:32:43;;;;;;;19.55;7.75;;;3.10;99.90;;;4.59;100.00;99983.63;4938072;29;20078;-75
2024/01/14 03:35:09;;;;;;;26.30;8.90;;;3.10;99.90;;;4.27;100.00;99987.72;4937838;28;20075;-75
2024/01/14 03:37:34;;;;;;;18.95;7.72;;;3.10;99.90;;;4.20;100.00;99970.56;4945218;29;20043;-76
2024/01/14 03:40:01;;;;;;;21.42;8.43;;;3.10;99.90;;;4.30;100.00;99981.91;4944198;28;20043;-78
2024/01/14 03:42:27;;;;;;;20.70;8.30;;;3.10;99.90;;;4.53;100.00;99984.41;4948327;29;20576;-76
2024/01/14 03:44:52;;;;;;;21.40;8.98;;;3.10;99.90;;;4.44;100.00;99985.59;4935797;29;20043;-76
2024/01/14 03:47:18;;;;;;;21.00;8.52;;;3.10;99.90;;;4.45;100.00;99976.47;4941615;29;20114;-76
2024/01/14 03:49:44;;;;;;;20.92;8.52;;;3.00;99.90;;;4.44;100.00;99972.91;4947041;28;20102;-76
2024/01/14 03:52:09;;;;;;;23.30;8.23;;;3.00;99.90;;;4.42;100.00;99983.06;4935729;29;20039;-76
2024/01/14 03:54:35;;;;;;;19.77;8.57;;;3.00;99.90;;;4.22;100.00;99988.28;4947662;28;20416;-76
2024/01/14 03:57:01;;;;;;;17.42;7.75;;;3.00;99.90;;;4.15;100.00;99979.28;4950599;29;20039;-76
2024/01/14 03:59:27;;;;;;;22.05;8.70;;;3.00;99.90;;;4.31;100.00;99980.88;4967232;28;20036;-76
2024/01/14 04:01:52;;;;;;;22.45;8.52;;;3.00;99.90;;;4.35;100.00;99979.47;4940653;28;20042;-75
2024/01/14 04:04:18;;;;;;;19.33;8.55;;;3.00;99.90;;;4.50;100.00;99970.44;4935888;29;20027;-76
2024/01/14 04:06:44;;;;;;;19.23;8.18;;;3.00;99.90;;;4.60;100.00;99976.38;4947917;28;20487;-76
2024/01/14 04:09:10;;;;;;;19.92;8.15;;;3.00;99.90;;;4.35;100.00;99968.66;4940031;29;20130;-78
2024/01/14 04:11:36;;;;;;;19.00;8.00;;;3.00;99.90;;;4.42;100.00;99969.56;4943976;29;20070;-76
2024/01/14 04:14:02;;;;;;;18.48;7.85;;;3.00;99.90;;;4.40;100.00;99977.03;4939301;29;20035;-75
2024/01/14 04:16:37;;;;;;;19.35;7.22;;;3.00;99.90;;;4.18;100.00;99976.19;4941541;28;20035;-76
2024/01/14 04:19:02;;;;;;;21.73;7.78;;;3.00;99.90;;;4.55;100.00;99968.84;4935959;28;20309;-76
2024/01/14 04:21:28;;;;;;;23.02;8.50;;;3.00;99.90;;;4.51;100.00;99956.75;4934756;29;20470;-76
2024/01/14 04:23:54;;;;;;;21.48;8.45;;;3.00;99.90;;;4.42;100.00;99969.56;4935705;29;20040;-76
2024/01/14 04:26:21;;;;;;;21.42;8.65;;;2.90;99.90;;;4.56;100.00;99958.91;4935787;29;20036;-76
2024/01/14 04:28:48;;;;;;;17.85;7.93;;;2.90;99.90;;;4.51;100.00;99982.94;4949247;28;20039;-76
2024/01/14 04:31:14;;;;;;;18.63;8.13;;;2.90;99.90;;;4.60;100.00;99969.09;4946932;28;20071;-76
2024/01/14 04:33:40;;;;;;;19.13;7.72;;;2.90;99.90;;;4.47;100.00;99972.50;4947085;28;20114;-76
2024/01/14 04:36:06;;;;;;;18.15;7.13;;;2.90;99.90;;;4.44;100.00;99966.69;4945358;28;20045;-77
2024/01/14 04:38:32;;;;;;;22.02;8.10;;;2.90;99.90;;;4.53;100.00;99962.81;4946157;28;20455;-77
2024/01/14 04:40:58;;;;;;;18.80;7.88;;;2.90;99.90;;;4.24;100.00;99947.56;4944424;28;20126;-77
2024/01/14 04:43:23;;;;;;;19.60;8.32;;;3.00;99.90;;;4.48;100.00;99965.25;4947349;28;20036;-77
2024/01/14 04:45:49;;;;;;;19.85;7.30;;;3.00;99.90;;;4.59;100.00;99963.91;4955377;28;20039;-75
2024/01/14 04:48:15;;;;;;;22.70;6.72;;;3.00;99.90;;;4.18;100.00;99954.59;4938530;28;20118;-76
2024/01/14 04:50:41;;;;;;;17.80;7.10;;;3.00;99.90;;;4.51;100.00;99969.41;4938556;28;20077;-75
2024/01/14 04:53:07;;;;;;;17.83;7.68;;;3.00;99.90;;;4.49;100.00;99964.22;4932105;29;20036;-76
2024/01/14 04:55:33;;;;;;;19.67;6.63;;;3.00;99.90;;;4.04;100.00;99950.91;4939710;29;20063;-76
2024/01/14 04:57:59;;;;;;;19.98;6.60;;;3.00;99.90;;;4.39;100.00;99945.63;4940446;29;20657;-76
2024/01/14 05:00:26;;;;;;;12.88;5.38;;;2.90;99.90;;;4.35;100.00;99957.88;4947040;28;20128;-75
2024/01/14 05:02:51;;;;;;;15.65;5.32;;;3.00;99.90;;;4.27;100.00;99960.69;4935265;29;20035;-77
2024/01/14 05:05:17;;;;;;;14.95;5.20;;;2.90;99.90;;;4.68;100.00;99957.31;4942030;29;20404;-76
2024/01/14 05:07:43;;;;;;;11.57;4.28;;;2.90;99.90;;;4.43;100.00;99946.91;4943703;28;20035;-76
2024/01/14 05:10:10;;;;;;;13.95;4.68;;;2.90;99.90;;;4.38;100.00;99952.06;4950461;29;20031;-76
2024/01/14 05:12:35;;;;;;;13.05;5.15;;;2.90;99.90;;;4.28;100.00;99946.16;4943734;28;20054;-76
2024/01/14 05:15:01;;;;;;;14.00;4.35;;;2.90;99.90;;;4.34;100.00;99936.44;4947808;29;20476;-76
2024/01/14 05:17:27;;;;;;;11.88;4.65;;;3.00;99.90;;;4.29;100.00;99945.97;4938203;28;20710;-77
2024/01/14 05:19:53;;;;;;;10.90;4.00;;;3.00;99.90;;;4.08;100.00;99940.53;4941079;29;20036;-77
2024/01/14 05:22:20;;;;;;;12.50;4.15;;;3.00;99.90;;;4.34;100.00;99939.13;4934959;29;20063;-75
2024/01/14 05:24:46;;;;;;;12.18;4.53;;;3.00;99.90;;;4.02;100.00;99947.56;4944891;28;20505;-75
2024/01/14 05:27:13;;;;;;;10.75;4.18;;;3.00;99.90;;;4.47;100.00;99936.56;4962320;28;20039;-76
2024/01/14 05:29:40;;;;;;;11.90;4.27;;;2.90;99.90;;;4.54;100.00;99939.34;4944924;28;20061;-76
2024/01/14 05:32:14;;;;;;;13.23;4.53;;;2.90;99.90;;;4.60;100.00;99933.97;4947419;28;20293;-77
2024/01/14 05:34:41;;;;;;;9.13;4.20;;;2.90;99.90;;;4.56;100.00;99943.50;4961147;28;20106;-76
2024/01/14 05:37:07;;;;;;;10.00;4.28;;;2.90;99.90;;;4.45;100.00;99936.75;4967927;28;20130;-76
2024/01/14 05:39:34;;;;;;;11.63;3.70;;;2.80;99.90;;;4.38;100.00;99941.28;4943002;28;20031;-76
2024/01/14 05:42:00;;;;;;;12.80;4.07;;;2.80;99.90;;;4.33;100.00;99938.31;4948304;28;20443;-77
2024/01/14 05:44:26;;;;;;;11.65;4.00;;;2.90;99.90;;;4.45;100.00;99939.47;4943285;28;20042;-76
2024/01/14 05:46:53;;;;;;;11.85;3.53;;;2.90;99.90;;;4.21;100.00;99929.03;4966175;28;20047;-77
2024/01/14 05:49:19;;;;;;;11.40;3.83;;;2.90;99.90;;;4.59;100.00;99937.72;4943166;29;20043;-76
2024/01/14 05:51:46;;;;;;;11.32;3.63;;;2.80;99.90;;;4.29;100.00;99943.25;4938222;28;20061;-76
2024/01/14 05:54:14;;;;;;;10.10;3.78;;;2.80;99.90;;;4.24;100.00;99936.75;4936094;29;20443;-76
2024/01/14 05:56:40;;;;;;;11.43;3.63;;;2.90;99.90;;;4.10;100.00;99950.13;4935836;28;20094;-77
2024/01/14 05:59:06;;;;;;;14.60;4.05;;;2.90;99.90;;;4.36;100.00;99937.06;4948153;29;20035;-76
2024/01/14 06:01:31;;;;;;;11.82;3.60;;;2.90;99.90;;;4.19;100.00;99953.56;4945754;28;20023;-76
2024/01/14 06:03:57;;;;;;;8.95;2.92;;;2.90;99.90;;;4.20;100.00;99944.44;4937884;28;20047;-77
2024/01/14 06:06:23;;;;;;;10.20;3.70;;;2.90;99.90;;;4.06;100.00;99946.16;4935981;29;20035;-77
2024/01/14 06:08:49;;;;;;;15.55;3.83;;;3.00;99.90;;;4.25;100.00;99941.97;4936930;29;20039;-77
2024/01/14 06:11:16;;;;;;;17.02;3.85;;;3.00;99.90;;;4.43;100.00;99941.53;4942650;28;20065;-77
2024/01/14 06:13:42;;;;;;;8.30;3.40;;;2.90;99.90;;;4.37;100.00;99931.50;4949735;28;20024;-77
2024/01/14 06:16:09;;;;;;;10.70;3.17;;;2.90;99.90;;;4.37;100.00;99934.19;4965340;28;20094;-77
2024/01/14 06:18:35;;;;;;;12.40;3.20;;;2.90;99.90;;;4.27;100.00;99952.59;4958188;28;20063;-76
2024/01/14 06:21:01;;;;;;;11.57;3.33;;;2.90;99.90;;;4.21;100.00;99945.25;4950930;28;20538;-77
2024/01/14 06:23:28;;;;;;;9.57;3.35;;;2.90;99.90;;;4.35;100.00;99933.56;4956874;28;20031;-77
2024/01/14 06:25:54;;;;;;;10.32;3.13;;;2.90;99.90;;;4.24;100.00;99936.75;4967475;28;20027;-78
2024/01/14 06:28:21;;;;;;;9.05;3.38;;;2.90;99.90;;;4.06;100.00;99932.66;4950272;28;20031;-78
2024/01/14 06:30:46;;;;;;;10.57;3.25;;;2.90;99.90;;;4.43;100.00;99936.13;4946495;28;20510;-77
2024/01/14 06:33:12;;;;;;;12.18;3.88;;;3.00;99.90;;;4.50;100.00;99929.94;4967099;28;20122;-77
2024/01/14 06:35:38;;;;;;;12.77;3.50;;;3.00;99.90;;;4.54;100.00;99931.25;4945459;28;20107;-76
2024/01/14 06:38:04;;;;;;;12.88;3.78;;;3.00;99.90;;;4.56;100.00;99930.00;4948354;29;20452;-76
2024/01/14 06:40:30;;;;;;;10.23;3.47;;;2.90;99.90;;;4.25;100.00;99931.19;4940155;28;20046;-76
2024/01/14 06:42:56;;;;;;;17.27;3.60;;;2.80;99.90;;;4.22;100.00;99930.72;4940508;28;20053;-75
2024/01/14 06:45:21;;;;;;;12.10;3.55;;;2.80;99.90;;;4.25;100.00;99933.06;4965796;28;20039;-76
2024/01/14 06:47:47;;;;;;;14.63;3.22;;;2.80;99.90;;;4.30;100.00;99928.72;4949380;28;20128;-76
2024/01/14 06:50:13;;;;;;;10.00;3.90;;;2.80;99.90;;;4.47;100.00;99931.16;4949515;28;20035;-76
2024/01/14 06:52:40;;;;;;;13.45;4.20;;;2.80;99.90;;;4.38;100.00;99930.47;4951656;29;22014;-76
2024/01/14 06:55:06;;;;;;;10.80;3.20;;;2.80;99.90;;;4.27;100.00;99928.28;4938074;28;20124;-75
2024/01/14 06:57:32;;;;;;;14.15;4.00;;;2.80;99.90;;;4.33;100.00;99922.13;4943218;28;20112;-75
2024/01/14 07:00:00;;;;;;;15.85;4.10;;;2.80;99.90;;;4.13;100.00;99924.63;4945601;29;20514;-75
2024/01/14 07:02:26;;;;;;;12.38;3.78;;;2.80;99.90;;;4.25;100.00;99933.88;4963078;28;20074;-76
2024/01/14 07:04:52;;;;;;;13.23;3.53;;;2.90;99.90;;;4.37;100.00;99933.34;4955441;28;20062;-76
2024/01/14 07:07:18;;;;;;;8.75;3.30;;;2.90;99.90;;;4.46;100.00;99937.59;4941994;29;20036;-75
2024/01/14 07:09:44;;;;;;;7.97;2.95;;;2.80;99.90;;;4.56;100.00;99923.78;4944485;28;20039;-76
2024/01/14 07:12:10;;;;;;;9.13;3.10;;;2.90;99.90;;;4.27;100.00;99926.41;4946903;28;20391;-77
2024/01/14 07:14:35;;;;;;;8.40;2.63;;;2.90;99.90;;;4.23;100.00;99937.78;4945212;28;20137;-77
2024/01/14 07:17:01;;;;;;;13.93;3.67;;;2.90;99.90;;;4.31;100.00;99924.19;4937277;29;20055;-76
2024/01/14 07:19:27;;;;;;;13.07;2.70;;;2.80;99.90;;;4.41;100.00;99935.47;4952520;28;20038;-75
2024/01/14 07:21:52;;;;;;;11.85;2.63;;;2.80;99.90;;;4.41;100.00;99930.06;4947334;28;20042;-76
2024/01/14 07:24:18;;;;;;;11.60;3.05;;;2.80;99.90;;;4.52;100.00;99919.78;4942743;29;20035;-78
2024/01/14 07:26:44;;;;;;;12.02;2.85;;;2.80;99.90;;;4.67;100.00;99936.75;4947033;28;20070;-78
2024/01/14 07:29:10;;;;;;;8.20;3.25;;;2.80;99.90;;;4.59;100.00;99920.69;4941212;28;20042;-78
2024/01/14 07:31:35;;;;;;;12.05;3.28;;;2.70;99.90;;;4.53;100.00;99922.28;4952688;28;20039;-78
2024/01/14 07:34:01;;;;;;;12.65;3.53;;;2.80;99.90;;;4.41;100.00;99921.97;4963097;28;20043;-77
2024/01/14 07:36:27;;;;;;;14.02;3.33;;;2.80;99.90;;;4.42;100.00;99915.53;4942893;28;20035;-78
2024/01/14 07:38:53;;;;;;;10.98;3.28;;;2.80;99.90;;;4.25;100.00;99909.56;4948991;29;20028;-78
2024/01/14 07:41:19;;;;;;;15.48;3.70;;;2.80;99.90;;;4.44;100.00;99923.47;4948583;28;20071;-78
2024/01/14 07:43:46;;;;;;;9.30;3.35;;;2.80;99.90;;;4.55;100.00;99924.81;4947169;28;20027;-79
2024/01/14 07:46:12;;;;;;;12.13;2.90;;;2.80;99.90;;;4.56;100.00;99927.28;4950385;28;20384;-78
2024/01/14 07:48:39;;;;;;;14.68;3.35;;;2.80;99.90;;;4.44;100.00;99924.28;4956284;28;20138;-77
2024/01/14 07:51:05;;;;;;;15.80;4.03;;;2.80;99.90;;;4.58;100.00;99936.03;4949005;28;20531;-77
2024/01/14 07:53:30;;;;;;;12.93;3.10;;;2.90;99.90;;;4.48;100.00;99932.84;4952660;28;20049;-78
2024/01/14 07:55:56;;;;;;;10.07;3.15;;;2.90;99.90;;;4.40;100.00;99944.59;4947629;28;20035;-77
2024/01/14 07:58:22;;;;;;;10.55;3.20;;;2.90;99.90;;;4.47;100.00;99929.28;4951762;28;20054;-78
2024/01/14 08:00:48;;;;;;;13.48;3.70;;;2.90;99.90;;;4.46;100.00;99916.00;4959763;28;20102;-78
2024/01/14 08:03:14;;;;;;;12.23;3.38;;;2.90;99.90;;;4.72;100.00;99934.28;4966404;28;20082;-79
2024/01/14 08:05:39;;;;;;;12.73;3.83;;;3.00;99.90;;;4.59;100.00;99926.91;4959954;28;20040;-79
2024/01/14 08:08:06;;;;;;;16.20;3.90;;;3.00;99.90;;;4.74;100.00;99937.63;4945175;29;20039;-78
2024/01/14 08:10:35;;;;;;;13.48;3.78;;;3.10;99.90;;;4.79;100.00;99928.13;4964075;28;20043;-80
2024/01/14 08:13:01;;;;;;;12.13;3.58;;;3.10;99.90;;;4.84;100.00;99934.56;4951195;28;20049;-80
2024/01/14 08:15:27;;;;;;;11.57;3.72;;;3.10;99.90;;;4.86;100.00;99926.28;4943899;28;20122;-78
2024/01/14 08:17:53;;;;;;;14.45;3.55;;;3.20;99.90;;;4.90;100.00;99938.38;4946277;28;20050;-79
2024/01/14 08:20:19;;;;;;;14.07;4.18;;;3.20;99.90;;;4.73;100.00;99938.66;4949201;28;20066;-78
2024/01/14 08:22:45;;;;;;;14.10;3.13;;;3.20;99.90;;;4.90;100.00;99925.66;4935134;29;20063;-78
2024/01/14 08:25:10;;;;;;;11.93;3.17;;;3.20;99.90;;;4.90;100.00;99928.38;4950465;29;20118;-78
2024/01/14 08:27:38;;;;;;;13.27;3.13;;;3.20;99.90;;;5.06;100.00;99933.72;4940427;28;20050;-78
2024/01/14 08:30:07;;;;;;;13.95;3.90;;;3.20;99.90;;;4.78;100.00;99935.38;4948846;28;20039;-79
2024/01/14 08:32:33;;;;;;;12.57;3.22;;;3.20;99.90;;;4.80;100.00;99938.72;4939636;29;20041;-78
2024/01/14 08:34:59;;;;;;;13.60;3.38;;;3.30;99.90;;;4.96;100.00;99926.75;4941060;28;20118;-79
2024/01/14 08:37:29;;;;;;;12.25;3.30;;;3.40;99.90;;;5.00;100.00;99928.03;4952480;28;20054;-78
2024/01/14 08:39:54;;;;;;;10.40;3.20;;;3.50;99.90;;;4.87;100.00;99933.38;4966536;28;20122;-78
2024/01/14 08:42:20;;;;;;;16.75;3.65;;;3.40;99.90;;;5.17;100.00;99915.06;4963557;28;20472;-79
2024/01/14 08:44:47;;;;;;;10.98;3.10;;;3.50;99.90;;;5.26;100.00;99915.72;4942135;28;20043;-78
2024/01/14 08:47:13;;;;;;;11.00;3.47;;;3.60;99.90;;;5.18;100.00;99929.41;4942366;28;20138;-78
2024/01/14 08:49:42;;;;;;;14.20;3.45;;;3.70;99.90;;;5.17;100.00;99922.31;4948309;28;20116;-78
2024/01/14 08:52:08;;;;;;;13.02;3.70;;;3.70;99.90;;;5.18;100.00;99907.75;4940928;29;20070;-78
2024/01/14 08:54:38;;;;;;;8.18;3.10;;;3.80;99.90;;;5.23;100.00;99905.28;4946508;28;20402;-77
2024/01/14 08:57:03;;;;;;;14.15;3.50;;;3.80;99.90;;;5.09;100.00;99908.97;4947686;28;20066;-78
2024/01/14 08:59:29;;;;;;;13.05;3.45;;;3.80;99.90;;;5.25;100.00;99919.44;4946388;28;20499;-77
2024/01/14 09:01:55;;;;;;;10.43;3.35;;;3.80;99.90;;;5.17;100.00;99911.50;4949680;28;20427;-79
2024/01/14 09:04:21;;;;;;;13.55;3.70;;;3.80;99.90;;;5.49;100.00;99916.47;4948729;28;20137;-78
2024/01/14 09:06:46;;;;;;;14.90;3.92;;;3.80;99.90;;;5.62;100.00;99930.03;4963145;28;20047;-78
2024/01/14 09:09:12;;;;;;;10.07;3.25;;;3.90;99.90;;;5.46;100.00;99923.94;4967999;28;20049;-77
2024/01/14 09:11:38;;;;;;;16.02;3.88;;;3.90;99.90;;;5.41;100.00;99931.00;4969513;28;20039;-77
2024/01/14 09:14:05;;;;;;;12.93;3.80;;;3.90;99.90;;;5.58;100.00;99913.38;4937765;29;20042;-79
2024/01/14 09:16:31;;;;;;;9.52;3.88;;;3.90;99.90;;;5.93;100.00;99917.03;4945989;29;20042;-79
2024/01/14 09:18:57;;;;;;;13.48;4.22;;;4.00;99.90;;;5.69;100.00;99917.34;4944608;28;20050;-79
2024/01/14 09:21:23;;;;;;;11.13;4.10;;;4.00;99.90;;;5.60;100.00;99915.88;4951401;29;20039;-78
2024/01/14 09:23:49;;;;;;;13.75;4.10;;;4.00;99.90;;;5.69;100.00;99911.13;4938999;29;20047;-80
2024/01/14 09:26:15;;;;;;;11.70;4.00;;;4.00;99.90;;;5.18;100.00;99914.03;4950803;28;20047;-80
2024/01/14 09:28:40;;;;;;;11.45;4.03;;;4.00;99.90;;;5.73;100.00;99915.09;4962159;28;20035;-78
2024/01/14 09:31:07;;;;;;;12.52;4.03;;;4.10;99.90;;;5.66;100.00;99925.06;4945401;28;20071;-78
2024/01/14 09:33:32;;;;;;;11.23;4.53;;;4.10;99.90;;;5.76;100.00;99920.09;4936334;29;20103;-80
2024/01/14 09:36:06;;;;;;;11.45;4.43;;;4.10;99.90;;;5.74;100.00;99923.03;4956365;28;20051;-78
2024/01/14 09:38:31;;;;;;;12.65;4.50;;;4.00;99.90;;;5.68;100.00;99923.00;4943745;28;20040;-78
2024/01/14 09:41:22;;;;;;;9.45;4.03;;;4.00;99.90;;;5.57;100.00;99918.97;4947213;28;20039;-78
2024/01/14 09:43:51;;;;;;;11.27;4.07;;;3.90;99.90;;;5.60;100.00;99932.97;4940291;29;20436;-78
2024/01/14 09:46:18;;;;;;;10.90;4.13;;;3.90;99.90;;;5.84;100.00;99911.81;4943179;29;20031;-80
2024/01/14 09:48:47;;;;;;;12.05;4.70;;;3.80;99.90;;;5.71;100.00;99925.28;4946512;29;20039;-79
2024/01/14 09:51:15;;;;;;;11.98;4.22;;;3.80;99.90;;;5.81;100.00;99909.47;4948212;28;20043;-80
2024/01/14 09:53:43;;;;;;;9.13;4.70;;;3.80;99.90;;;5.56;100.00;99917.31;4948800;28;20055;-81
2024/01/14 09:56:10;;;;;;;8.68;4.88;;;3.80;99.90;;;5.73;100.00;99915.09;4956779;28;20036;-79
2024/01/14 09:58:39;;;;;;;10.77;4.82;;;3.80;99.90;;;5.63;100.00;99898.41;4937905;29;20040;-78
2024/01/14 10:01:08;;;;;;;11.63;5.07;;;3.90;99.90;;;5.90;100.00;99921.81;4952991;28;20032;-78
2024/01/14 10:03:34;;;;;;;10.10;4.43;;;4.00;99.90;;;5.85;100.00;99907.22;4944961;29;20630;-79
2024/01/14 10:06:01;;;;;;;8.38;4.75;;;4.00;99.90;;;6.01;100.00;99895.19;4948778;28;20546;-79
2024/01/14 10:08:27;;;;;;;9.07;4.20;;;4.10;99.90;;;6.11;100.00;99903.78;4944553;28;20036;-79
2024/01/14 10:10:53;;;;;;;8.65;4.63;;;4.10;99.90;;;6.83;100.00;99886.91;4944722;29;20035;-78
2024/01/14 10:13:22;;;;;;;11.05;4.25;;;4.40;99.90;;;7.48;100.00;99894.22;4942100;29;20054;-77